Time;durP1;ratioP1;P1;durP2;ratioP2;P2;SDS_P1;SDS_P2;PMS_P1;PMS_P2;Temp;Humidity;BMP_temperature;BMP_pressure;BME280_temperature;BME280_humidity;BME280_pressure;Samples;Min_cycle;Max_cycle;Signal;HPM_P1;HPM_P2
2022/09/20 00:01:14;;;;;;;3.30;0.80;;;11.70;61.60;;;;;;5112247;28;20092;-70
2022/09/20 00:03:42;;;;;;;5.43;0.70;;;11.80;61.70;;;;;;5122902;27;20035;-70
2022/09/20 00:06:11;;;;;;;2.95;1.02;;;11.80;61.70;;;;;;5125331;27;20352;-70
2022/09/20 00:08:38;;;;;;;3.25;0.88;;;11.80;61.70;;;;;;5112138;28;20411;-70
2022/09/20 00:11:06;;;;;;;3.60;0.95;;;11.80;61.80;;;;;;5111741;28;20040;-70
2022/09/20 00:13:33;;;;;;;3.80;1.00;;;11.70;61.80;;;;;;5111943;28;20050;-70
2022/09/20 00:15:59;;;;;;;5.10;1.05;;;11.80;61.80;;;;;;5112092;28;20035;-70
2022/09/20 00:18:25;;;;;;;7.50;1.20;;;11.70;61.80;;;;;;5094505;28;20126;-70
2022/09/20 00:20:52;;;;;;;3.85;1.13;;;11.70;61.80;;;;;;5111569;28;20048;-70
2022/09/20 00:23:18;;;;;;;2.72;0.90;;;11.70;61.80;;;;;;5111541;28;20122;-70
2022/09/20 00:25:45;;;;;;;3.03;0.60;;;11.70;61.90;;;;;;5112134;28;20051;-70
2022/09/20 00:28:11;;;;;;;3.80;0.75;;;11.70;62.00;;;;;;5111523;28;20075;-70
2022/09/20 00:30:37;;;;;;;5.68;0.82;;;11.70;62.00;;;;;;5112050;28;20489;-70
2022/09/20 00:33:03;;;;;;;4.97;0.70;;;11.60;62.00;;;;;;5111858;28;20119;-70
2022/09/20 00:35:29;;;;;;;3.13;0.85;;;11.70;62.10;;;;;;5112917;28;20118;-70
2022/09/20 00:37:55;;;;;;;5.00;1.73;;;11.60;62.10;;;;;;5094947;28;20050;-69
2022/09/20 00:40:22;;;;;;;2.25;0.73;;;11.60;62.10;;;;;;5111805;28;20127;-69
2022/09/20 00:42:49;;;;;;;4.82;0.88;;;11.60;62.20;;;;;;5111724;28;20051;-70
2022/09/20 00:45:22;;;;;;;4.80;1.00;;;11.60;62.30;;;;;;5111288;28;20051;-70
2022/09/20 00:48:03;;;;;;;6.43;1.05;;;11.60;62.40;;;;;;5111465;28;20039;-70
2022/09/20 00:50:48;;;;;;;4.40;1.20;;;11.60;62.40;;;;;;5111561;28;20039;-70
2022/09/20 00:53:23;;;;;;;3.30;0.82;;;11.60;62.50;;;;;;5109375;28;20047;-70
2022/09/20 00:55:54;;;;;;;4.50;1.23;;;11.60;62.60;;;;;;5111683;28;20118;-70
2022/09/20 00:58:22;;;;;;;4.38;0.70;;;11.50;62.60;;;;;;5111976;28;20498;-70
2022/09/20 01:00:48;;;;;;;5.03;0.93;;;11.50;62.80;;;;;;5115976;28;20050;-70
2022/09/20 01:03:19;;;;;;;4.70;1.48;;;11.50;62.90;;;;;;5115608;28;20051;-70
2022/09/20 01:05:44;;;;;;;3.70;0.90;;;11.50;63.00;;;;;;5115384;28;20100;-70
2022/09/20 01:08:11;;;;;;;7.28;1.42;;;11.60;63.10;;;;;;5115219;28;20032;-70
2022/09/20 01:10:37;;;;;;;3.05;0.70;;;11.50;63.20;;;;;;5115676;27;20046;-70
2022/09/20 01:13:04;;;;;;;1.50;0.55;;;11.50;63.30;;;;;;5081640;28;20071;-71
2022/09/20 01:15:33;;;;;;;4.57;0.73;;;11.50;63.40;;;;;;5115625;28;20047;-70
2022/09/20 01:17:59;;;;;;;3.63;0.80;;;11.50;63.40;;;;;;5131184;27;20499;-70
2022/09/20 01:20:30;;;;;;;4.55;0.80;;;11.50;63.40;;;;;;5114723;28;20054;-70
2022/09/20 01:23:23;;;;;;;1.98;0.50;;;11.50;63.50;;;;;;5115233;28;20083;-70
2022/09/20 01:26:10;;;;;;;4.57;1.05;;;11.50;63.60;;;;;;5121333;27;20051;-70
2022/09/20 01:28:37;;;;;;;4.15;1.30;;;11.50;63.80;;;;;;5114265;28;20504;-70
2022/09/20 01:31:13;;;;;;;6.45;1.33;;;11.50;63.90;;;;;;5115223;28;20498;-70
2022/09/20 01:33:57;;;;;;;8.43;1.83;;;11.60;64.10;;;;;;5115012;28;20051;-70
2022/09/20 01:36:28;;;;;;;3.72;0.80;;;11.60;64.20;;;;;;5101157;28;20093;-70
2022/09/20 01:39:10;;;;;;;5.95;1.27;;;11.60;64.30;;;;;;5114634;28;20039;-70
2022/09/20 01:41:44;;;;;;;2.47;0.70;;;11.60;64.60;;;;;;5132410;27;20541;-70
2022/09/20 01:44:27;;;;;;;5.85;0.90;;;11.60;64.60;;;;;;5097446;28;20432;-70
2022/09/20 01:47:04;;;;;;;4.15;1.42;;;11.70;64.80;;;;;;5114405;28;20165;-70
2022/09/20 01:49:55;;;;;;;5.07;0.82;;;11.70;64.80;;;;;;5114427;28;20036;-70
2022/09/20 01:52:51;;;;;;;6.15;0.90;;;11.70;64.70;;;;;;5114526;28;20047;-70
2022/09/20 01:55:20;;;;;;;3.67;0.70;;;11.70;64.60;;;;;;5114285;28;20470;-70
2022/09/20 01:58:16;;;;;;;4.53;1.02;;;11.70;64.60;;;;;;5115060;28;20043;-70
2022/09/20 02:01:05;;;;;;;7.13;1.50;;;11.80;64.50;;;;;;5113983;28;20058;-70
2022/09/20 02:03:50;;;;;;;3.50;0.75;;;11.80;65.00;;;;;;5113807;28;20126;-70
2022/09/20 02:06:19;;;;;;;;;;;11.80;64.60;;;;;;5097519;28;20157;-70
2022/09/20 02:08:44;;;;;;;4.72;0.75;;;11.80;64.40;;;;;;5114362;28;19923;-70
2022/09/20 02:11:17;;;;;;;5.38;0.90;;;11.80;64.50;;;;;;5113671;28;20039;-70
2022/09/20 02:14:23;;;;;;;6.45;0.95;;;11.90;64.60;;;;;;5114284;28;20042;-70
2022/09/20 02:17:15;;;;;;;3.78;0.75;;;11.90;64.50;;;;;;5111135;27;20040;-70
2022/09/20 02:19:49;;;;;;;2.65;0.70;;;11.90;64.40;;;;;;5099502;27;20379;-70
2022/09/20 02:22:17;;;;;;;3.90;0.65;;;11.90;64.50;;;;;;5114109;28;20062;-70
2022/09/20 02:24:55;;;;;;;4.35;0.70;;;11.90;64.40;;;;;;5113469;28;20043;-70
2022/09/20 02:27:23;;;;;;;3.47;0.75;;;12.00;64.40;;;;;;5114293;28;20043;-70
2022/09/20 02:30:21;;;;;;;6.88;0.93;;;12.00;64.30;;;;;;5114057;28;20032;-70
2022/09/20 02:33:08;;;;;;;5.10;1.13;;;12.00;64.20;;;;;;5114492;28;20130;-70
2022/09/20 02:35:36;;;;;;;2.85;0.98;;;12.00;64.20;;;;;;5113208;28;20039;-70
2022/09/20 02:38:10;;;;;;;4.75;0.82;;;12.00;64.10;;;;;;5113589;28;20498;-70
2022/09/20 02:40:48;;;;;;;6.95;1.00;;;12.00;64.10;;;;;;5113642;28;20100;-70
2022/09/20 02:43:22;;;;;;;4.05;1.02;;;12.10;64.10;;;;;;5113686;28;20053;-70
2022/09/20 02:46:07;;;;;;;2.53;0.55;;;12.10;64.10;;;;;;5115286;27;20093;-70
2022/09/20 02:48:46;;;;;;;;;;;12.10;64.00;;;;;;5109674;28;20071;-70
2022/09/20 02:51:40;;;;;;;4.30;1.05;;;12.10;63.80;;;;;;5096245;28;19916;-70
2022/09/20 02:54:24;;;;;;;4.65;0.80;;;12.20;64.00;;;;;;5081570;28;20059;-70
2022/09/20 02:57:03;;;;;;;3.17;0.80;;;12.20;64.10;;;;;;5127807;27;20157;-70
2022/09/20 02:59:45;;;;;;;3.22;0.68;;;12.20;64.10;;;;;;5113664;28;20039;-70
2022/09/20 03:02:58;;;;;;;2.88;0.82;;;12.20;64.10;;;;;;5113303;28;20031;-70
2022/09/20 03:06:04;;;;;;;5.90;0.95;;;12.30;64.10;;;;;;5112742;28;20031;-70
2022/09/20 03:08:42;;;;;;;3.00;0.80;;;12.30;64.00;;;;;;5113149;28;20054;-70
2022/09/20 03:11:38;;;;;;;3.05;0.90;;;12.30;64.10;;;;;;5096084;28;20043;-70
2022/09/20 03:14:22;;;;;;;4.15;0.80;;;12.30;64.00;;;;;;5120601;27;20040;-70
2022/09/20 03:17:09;;;;;;;4.97;0.95;;;12.30;64.10;;;;;;5113194;28;20363;-70
2022/09/20 03:19:51;;;;;;;2.78;0.80;;;12.30;64.10;;;;;;5113073;28;20126;-70
2022/09/20 03:22:42;;;;;;;3.65;0.90;;;12.30;64.10;;;;;;5111698;28;20051;-70
2022/09/20 03:25:36;;;;;;;6.78;1.17;;;12.30;64.20;;;;;;5112496;28;20674;-70
2022/09/20 03:28:02;;;;;;;3.22;0.70;;;12.40;64.30;;;;;;5056619;28;20126;-70
2022/09/20 03:30:37;;;;;;;3.72;1.02;;;12.40;64.30;;;;;;5100904;28;20114;-70
2022/09/20 03:33:26;;;;;;;3.88;0.75;;;12.40;64.30;;;;;;5113049;28;20097;-70
2022/09/20 03:35:52;;;;;;;4.55;0.93;;;12.40;64.10;;;;;;5117162;27;20031;-70
2022/09/20 03:38:45;;;;;;;4.53;0.68;;;12.40;64.10;;;;;;5112708;28;20050;-70
2022/09/20 03:41:26;;;;;;;3.60;0.70;;;12.40;63.90;;;;;;5112872;28;20252;-70
2022/09/20 03:43:57;;;;;;;3.10;0.77;;;12.50;64.00;;;;;;5112119;28;20078;-70
2022/09/20 03:46:31;;;;;;;3.65;0.95;;;12.40;64.00;;;;;;5112059;28;20038;-71
2022/09/20 03:49:31;;;;;;;3.45;1.00;;;12.40;64.00;;;;;;5112758;28;20040;-70
2022/09/20 03:52:18;;;;;;;4.55;0.95;;;12.50;64.10;;;;;;5095172;28;20047;-70
2022/09/20 03:55:02;;;;;;;3.03;0.73;;;12.50;64.30;;;;;;5112087;28;20075;-70
2022/09/20 03:57:40;;;;;;;4.47;0.85;;;12.50;64.30;;;;;;5095617;28;20047;-70
2022/09/20 04:00:19;;;;;;;3.78;0.90;;;12.50;64.40;;;;;;5112322;28;20101;-70
2022/09/20 04:03:09;;;;;;;4.43;0.93;;;12.50;64.60;;;;;;5111849;28;20046;-70
2022/09/20 04:05:49;;;;;;;5.80;1.00;;;12.50;64.60;;;;;;5110073;28;20079;-70
2022/09/20 04:08:46;;;;;;;7.30;1.17;;;12.50;64.70;;;;;;5111968;28;20512;-70
2022/09/20 04:11:36;;;;;;;2.60;0.47;;;12.50;64.70;;;;;;5111988;28;20468;-70
2022/09/20 04:14:13;;;;;;;2.80;0.85;;;12.60;64.70;;;;;;5112030;28;20073;-70
2022/09/20 04:16:42;;;;;;;4.30;0.90;;;12.50;64.70;;;;;;5112224;28;20043;-70
2022/09/20 04:19:40;;;;;;;2.55;0.60;;;12.60;64.80;;;;;;5111900;28;20040;-70
2022/09/20 04:22:07;;;;;;;3.83;0.57;;;12.60;64.80;;;;;;5111182;28;20108;-70
2022/09/20 04:24:58;;;;;;;5.88;0.90;;;12.60;64.80;;;;;;5112089;28;20391;-70
2022/09/20 04:27:45;;;;;;;2.08;0.70;;;12.60;64.70;;;;;;5111820;28;20042;-70
2022/09/20 04:30:29;;;;;;;3.25;0.57;;;12.60;64.70;;;;;;5094906;28;20032;-70
2022/09/20 04:33:13;;;;;;;2.10;0.50;;;12.60;64.70;;;;;;5111485;28;20043;-70
2022/09/20 04:38:28;;;;;;;2.35;0.50;;;12.60;64.70;;;;;;5111501;28;20176;-70
2022/09/20 04:41:33;;;;;;;2.83;0.68;;;12.60;64.70;;;;;;5112050;28;20039;-70
2022/09/20 04:44:26;;;;;;;1.23;0.45;;;12.60;64.50;;;;;;5095685;28;20036;-70
2022/09/20 04:47:19;;;;;;;3.83;0.55;;;12.60;64.50;;;;;;5112024;28;20044;-70
2022/09/20 04:50:22;;;;;;;3.20;0.98;;;12.60;64.30;;;;;;5111953;28;20122;-70
2022/09/20 04:53:13;;;;;;;2.58;0.45;;;12.70;64.40;;;;;;5110950;28;20073;-70
2022/09/20 04:55:51;;;;;;;3.70;0.70;;;12.70;64.30;;;;;;5111927;28;20453;-70
2022/09/20 04:58:42;;;;;;;2.47;0.50;;;12.70;64.40;;;;;;5111572;28;20495;-70
2022/09/20 05:01:18;;;;;;;2.17;0.60;;;12.70;64.40;;;;;;5111544;28;20047;-70
2022/09/20 05:04:05;;;;;;;3.17;0.70;;;12.70;64.40;;;;;;5110442;28;20485;-70
2022/09/20 05:06:39;;;;;;;1.85;0.50;;;12.70;64.30;;;;;;5111417;28;20046;-70
2022/09/20 05:09:33;;;;;;;3.08;0.68;;;12.70;64.40;;;;;;5111286;28;20111;-70
2022/09/20 05:12:34;;;;;;;1.80;0.60;;;12.70;64.50;;;;;;5111448;28;20039;-70
2022/09/20 05:15:18;;;;;;;2.30;0.63;;;12.70;64.50;;;;;;5102420;28;20050;-70
2022/09/20 05:18:14;;;;;;;4.20;0.80;;;12.70;64.60;;;;;;5111343;28;20039;-70
2022/09/20 05:21:07;;;;;;;2.13;0.75;;;12.70;64.80;;;;;;5111572;28;20543;-70
2022/09/20 05:23:44;;;;;;;3.47;0.70;;;12.70;64.80;;;;;;5111351;28;20054;-70
2022/09/20 05:26:23;;;;;;;3.42;0.77;;;12.70;64.90;;;;;;5111922;28;20085;-70
2022/09/20 05:29:18;;;;;;;3.50;0.60;;;12.70;65.00;;;;;;5110726;28;20050;-70
2022/09/20 05:32:02;;;;;;;2.55;0.82;;;12.70;65.30;;;;;;5111300;28;20043;-67
2022/09/20 05:34:34;;;;;;;2.88;0.65;;;12.70;65.30;;;;;;5111186;28;20507;-67
2022/09/20 05:37:30;;;;;;;2.47;0.80;;;12.70;65.50;;;;;;5111482;28;20044;-67
2022/09/20 05:40:21;;;;;;;3.35;0.70;;;12.70;65.90;;;;;;5101189;28;20040;-67
2022/09/20 05:43:06;;;;;;;4.32;1.13;;;12.60;66.10;;;;;;5110554;28;20044;-67
2022/09/20 05:46:04;;;;;;;;;;;12.70;66.40;;;;;;5112511;28;20104;-67
2022/09/20 05:48:32;;;;;;;5.03;0.88;;;12.60;66.30;;;;;;5080998;28;19920;-67
2022/09/20 05:51:06;;;;;;;5.38;0.90;;;12.60;66.50;;;;;;5114180;28;20479;-67
2022/09/20 05:53:59;;;;;;;4.43;1.00;;;12.60;66.90;;;;;;5114644;28;20044;-67
2022/09/20 05:56:43;;;;;;;4.85;0.80;;;12.60;67.20;;;;;;5098081;28;20031;-67
2022/09/20 05:59:33;;;;;;;5.43;1.10;;;12.60;67.20;;;;;;5114218;28;20399;-67
2022/09/20 06:02:17;;;;;;;4.10;1.10;;;12.60;67.60;;;;;;5114971;28;20487;-68
2022/09/20 06:05:06;;;;;;;6.03;1.30;;;12.60;67.70;;;;;;5097282;28;20526;-69
2022/09/20 06:08:03;;;;;;;6.57;1.38;;;12.60;68.10;;;;;;5066891;28;20664;-68
2022/09/20 06:11:07;;;;;;;4.55;1.13;;;12.60;68.20;;;;;;5094429;28;20048;-67
2022/09/20 06:13:47;;;;;;;6.43;0.93;;;12.60;68.40;;;;;;5099155;28;20102;-67
2022/09/20 06:16:27;;;;;;;2.95;0.90;;;12.60;68.40;;;;;;5113856;28;20122;-69
2022/09/20 06:19:18;;;;;;;5.70;1.75;;;12.60;68.50;;;;;;5114205;28;20036;-70
2022/09/20 06:21:55;;;;;;;3.83;0.98;;;12.60;68.60;;;;;;5114193;28;20067;-70
2022/09/20 06:24:23;;;;;;;4.88;1.10;;;12.60;68.70;;;;;;5121284;27;20090;-70
2022/09/20 06:26:53;;;;;;;4.22;0.98;;;12.60;68.70;;;;;;5093904;28;20044;-67
2022/09/20 06:29:29;;;;;;;4.57;1.10;;;12.60;68.90;;;;;;5107346;28;20028;-67
2022/09/20 06:31:54;;;;;;;4.00;0.90;;;12.70;69.10;;;;;;5114210;28;20043;-67
2022/09/20 06:34:21;;;;;;;5.50;1.23;;;12.70;68.90;;;;;;5096748;28;20448;-67
2022/09/20 06:42:43;;;;;;;4.68;0.80;;;12.70;68.90;;;;;;5113829;28;20513;-67
2022/09/20 06:45:09;;;;;;;2.90;0.85;;;12.70;68.90;;;;;;5106911;28;20069;-69
2022/09/20 06:47:35;;;;;;;3.50;0.90;;;12.80;69.00;;;;;;5113029;28;20127;-70
2022/09/20 06:50:01;;;;;;;2.83;0.73;;;12.80;69.00;;;;;;5112699;28;20081;-70
2022/09/20 06:52:27;;;;;;;5.82;1.00;;;12.80;69.00;;;;;;5096145;28;20406;-70
2022/09/20 06:54:54;;;;;;;3.03;0.98;;;12.90;69.20;;;;;;5113384;28;20344;-70
2022/09/20 06:57:34;;;;;;;4.80;1.02;;;12.90;69.20;;;;;;5113075;28;20043;-71
2022/09/20 07:00:01;;;;;;;5.22;1.00;;;13.00;69.00;;;;;;5095253;28;20070;-70
2022/09/20 07:02:26;;;;;;;3.85;0.80;;;13.10;69.00;;;;;;5113456;28;20505;-68
2022/09/20 07:04:58;;;;;;;5.32;1.00;;;13.10;68.90;;;;;;5112674;28;20043;-67
2022/09/20 07:07:24;;;;;;;5.82;0.82;;;13.10;68.70;;;;;;5113255;28;20039;-67
2022/09/20 07:09:50;;;;;;;4.95;0.93;;;13.20;68.70;;;;;;5113311;28;20461;-67
2022/09/20 07:12:15;;;;;;;5.00;0.95;;;13.20;68.50;;;;;;5113220;28;20126;-68
2022/09/20 07:14:41;;;;;;;3.55;0.90;;;13.30;68.30;;;;;;5112714;28;20067;-67
2022/09/20 07:17:07;;;;;;;3.70;0.93;;;13.30;68.10;;;;;;5113120;28;20112;-72
2022/09/20 07:19:33;;;;;;;4.40;0.98;;;13.40;67.80;;;;;;5112445;28;20035;-71
2022/09/20 07:21:59;;;;;;;6.40;0.93;;;13.40;67.70;;;;;;5095100;28;20569;-70
2022/09/20 07:24:25;;;;;;;4.45;1.10;;;13.50;67.60;;;;;;5112929;28;20079;-70
2022/09/20 07:27:06;;;;;;;4.97;0.77;;;13.50;67.70;;;;;;5112971;28;20467;-70
2022/09/20 07:29:34;;;;;;;4.20;1.05;;;13.60;67.80;;;;;;5112798;28;20039;-71
2022/09/20 07:31:59;;;;;;;3.63;0.70;;;13.60;67.90;;;;;;5112879;28;20097;-68
2022/09/20 07:34:26;;;;;;;4.90;0.80;;;13.70;67.80;;;;;;5111815;28;20047;-68
2022/09/20 07:36:51;;;;;;;5.47;1.23;;;13.70;67.60;;;;;;5105166;28;20028;-68
2022/09/20 07:39:17;;;;;;;4.18;1.50;;;13.80;67.40;;;;;;5106476;28;20123;-68
2022/09/20 07:41:47;;;;;;;3.95;1.00;;;13.80;67.00;;;;;;5100216;28;20035;-68
2022/09/20 07:44:26;;;;;;;5.32;0.60;;;13.90;66.60;;;;;;5095743;28;20064;-68
2022/09/20 07:46:57;;;;;;;3.17;1.25;;;13.90;66.20;;;;;;5112499;28;20039;-68
2022/09/20 07:49:24;;;;;;;3.83;0.70;;;14.00;65.90;;;;;;5111108;28;20032;-68
2022/09/20 07:51:51;;;;;;;6.03;1.77;;;14.00;65.70;;;;;;5112138;28;20042;-70
2022/09/20 07:54:17;;;;;;;4.50;0.90;;;14.00;65.60;;;;;;5112797;28;20122;-74
2022/09/20 07:56:43;;;;;;;4.13;0.90;;;14.10;65.70;;;;;;5111701;28;20585;-69
2022/09/20 07:59:09;;;;;;;3.65;1.10;;;14.10;65.70;;;;;;5112461;28;20035;-69
2022/09/20 08:01:36;;;;;;;6.88;0.93;;;14.10;65.80;;;;;;5112248;28;20402;-69
2022/09/20 08:04:04;;;;;;;5.85;0.90;;;14.20;66.20;;;;;;5112041;28;20075;-70
2022/09/20 08:06:29;;;;;;;5.00;0.98;;;14.30;66.50;;;;;;5095071;28;20031;-70
2022/09/20 08:08:55;;;;;;;5.03;0.80;;;14.50;66.30;;;;;;5095070;28;20046;-69
2022/09/20 08:11:28;;;;;;;5.97;1.30;;;14.60;66.00;;;;;;5112190;28;20074;-69
2022/09/20 08:13:54;;;;;;;4.57;0.80;;;14.80;65.50;;;;;;5111865;28;20092;-69
2022/09/20 08:16:20;;;;;;;2.97;0.90;;;15.00;65.30;;;;;;5112109;28;20099;-69
2022/09/20 08:18:54;;;;;;;7.95;1.23;;;15.30;64.80;;;;;;5111773;28;20054;-69
2022/09/20 08:21:20;;;;;;;5.43;0.95;;;15.50;63.20;;;;;;5111710;28;20050;-70
2022/09/20 08:23:47;;;;;;;4.32;0.88;;;15.80;62.80;;;;;;5094857;28;20055;-69
2022/09/20 08:26:19;;;;;;;3.65;0.80;;;16.00;60.40;;;;;;5111821;28;20478;-72
2022/09/20 08:28:46;;;;;;;4.13;0.70;;;16.20;59.40;;;;;;5112200;28;20036;-72
2022/09/20 08:31:14;;;;;;;4.20;0.80;;;16.40;58.80;;;;;;5112011;28;20036;-71
2022/09/20 08:33:41;;;;;;;3.30;0.98;;;16.50;58.50;;;;;;5095012;28;20056;-72
2022/09/20 08:36:12;;;;;;;3.17;0.70;;;16.70;58.00;;;;;;5111247;28;20078;-70
2022/09/20 08:38:38;;;;;;;6.00;1.35;;;16.80;57.50;;;;;;5112060;28;20127;-73
2022/09/20 08:41:19;;;;;;;5.25;0.80;;;16.80;57.30;;;;;;5112163;28;20466;-72
2022/09/20 08:43:53;;;;;;;4.25;0.80;;;16.90;57.00;;;;;;5111732;28;20039;-72
2022/09/20 08:46:27;;;;;;;5.55;1.17;;;16.90;56.90;;;;;;5111674;28;20474;-72
2022/09/20 08:48:57;;;;;;;5.72;0.93;;;16.90;57.10;;;;;;5112034;28;20071;-72
2022/09/20 08:51:29;;;;;;;2.53;0.75;;;17.00;57.40;;;;;;5111489;28;20032;-71
2022/09/20 08:53:56;;;;;;;7.45;0.80;;;17.00;57.20;;;;;;5112076;28;20052;-72
2022/09/20 08:56:29;;;;;;;4.50;0.80;;;17.00;57.00;;;;;;5094868;28;20036;-71
2022/09/20 08:58:59;;;;;;;4.85;1.17;;;17.00;56.80;;;;;;5111946;28;20093;-72
2022/09/20 09:01:28;;;;;;;3.70;0.82;;;17.10;56.80;;;;;;5095069;28;20039;-72
2022/09/20 09:04:10;;;;;;;5.03;0.73;;;17.20;57.20;;;;;;5111612;28;20040;-71
2022/09/20 09:06:37;;;;;;;5.68;1.23;;;17.30;57.40;;;;;;5123395;28;20039;-72
2022/09/20 09:09:03;;;;;;;3.85;1.10;;;17.40;57.40;;;;;;5127551;28;20038;-71
2022/09/20 09:11:28;;;;;;;4.55;1.00;;;17.50;57.50;;;;;;5125721;28;20039;-71
2022/09/20 09:17:13;;;;;;;8.50;1.00;;;17.90;55.90;;;;;;5127176;28;20046;-72
2022/09/20 09:19:51;;;;;;;6.05;1.10;;;18.20;56.00;;;;;;5107112;27;20060;-72
2022/09/20 09:22:38;;;;;;;3.15;0.52;;;18.40;55.80;;;;;;5129657;27;20043;-73
2022/09/20 09:25:16;;;;;;;5.18;1.15;;;18.70;55.30;;;;;;5112417;27;20170;-72
2022/09/20 09:28:05;;;;;;;4.28;0.80;;;19.00;54.10;;;;;;5131147;27;20046;-73
2022/09/20 09:30:36;;;;;;;6.68;1.40;;;19.20;53.40;;;;;;5121792;27;20090;-72
2022/09/20 09:33:23;;;;;;;7.55;0.90;;;19.30;53.40;;;;;;5131307;27;20386;-72
2022/09/20 09:35:52;;;;;;;3.55;0.90;;;19.50;52.40;;;;;;5124707;27;20059;-72
2022/09/20 09:38:22;;;;;;;4.40;1.52;;;19.60;51.70;;;;;;5130323;27;20107;-72
2022/09/20 09:40:54;;;;;;;2.85;0.60;;;19.60;51.40;;;;;;5128480;27;20037;-72
2022/09/20 09:43:25;;;;;;;4.28;1.10;;;19.70;51.00;;;;;;5128083;27;20528;-72
2022/09/20 09:45:52;;;;;;;5.28;0.70;;;19.70;50.50;;;;;;5130356;27;20038;-71
2022/09/20 09:48:30;;;;;;;4.18;1.00;;;19.70;49.70;;;;;;5130589;27;20058;-72
2022/09/20 09:51:17;;;;;;;4.22;1.70;;;19.70;50.10;;;;;;5129649;27;20039;-72
2022/09/20 09:53:44;;;;;;;2.83;0.80;;;19.60;50.20;;;;;;5130313;27;20121;-73
2022/09/20 09:56:32;;;;;;;2.90;0.75;;;19.50;49.50;;;;;;5129864;27;20484;-72
2022/09/20 09:59:06;;;;;;;2.85;0.50;;;19.50;49.80;;;;;;5111740;27;20058;-73
2022/09/20 10:01:50;;;;;;;;;;;19.30;49.70;;;;;;5129721;27;20047;-72
2022/09/20 10:04:32;;;;;;;4.78;1.02;;;19.20;50.90;;;;;;5128756;27;19919;-71
2022/09/20 10:07:22;;;;;;;3.25;0.60;;;19.00;50.70;;;;;;5128450;27;20062;-71
2022/09/20 10:10:00;;;;;;;4.45;0.80;;;18.80;51.40;;;;;;5130351;27;20042;-72
2022/09/20 10:12:56;;;;;;;1.83;0.45;;;18.70;51.80;;;;;;5129594;27;20028;-71
2022/09/20 10:15:36;;;;;;;2.45;0.60;;;18.60;52.10;;;;;;5128597;27;20035;-71
2022/09/20 10:18:16;;;;;;;4.38;0.90;;;18.60;52.40;;;;;;5128904;27;20038;-72
2022/09/20 10:21:13;;;;;;;3.70;1.00;;;18.50;52.80;;;;;;5112578;27;20039;-72
2022/09/20 10:24:02;;;;;;;4.53;0.60;;;18.50;53.40;;;;;;5072894;27;20062;-72
2022/09/20 10:26:58;;;;;;;4.45;0.98;;;18.40;52.70;;;;;;5128296;27;20046;-72
2022/09/20 10:30:13;;;;;;;3.70;0.82;;;18.30;52.10;;;;;;5128553;27;20545;-72
2022/09/20 10:32:51;;;;;;;;;;;18.30;52.40;;;;;;5125726;27;20049;-72
2022/09/20 10:35:29;;;;;;;2.80;0.60;;;18.10;52.90;;;;;;5127859;27;20005;-72
2022/09/20 10:38:21;;;;;;;4.60;0.60;;;18.10;52.30;;;;;;5129537;27;20035;-72
2022/09/20 10:44:17;;;;;;;4.82;0.57;;;18.00;52.00;;;;;;5127491;27;20078;-71
2022/09/20 10:47:07;;;;;;;2.75;0.65;;;18.00;52.20;;;;;;5124101;27;20059;-71
2022/09/20 10:49:42;;;;;;;2.78;0.77;;;18.00;51.90;;;;;;5127643;27;20031;-71
2022/09/20 10:52:43;;;;;;;5.85;1.20;;;18.00;51.50;;;;;;5126485;27;20027;-71
2022/09/20 10:55:26;;;;;;;5.65;0.90;;;18.00;50.50;;;;;;5126317;27;20027;-72
2022/09/20 10:58:14;;;;;;;2.72;0.70;;;18.00;50.60;;;;;;5127709;27;20035;-72
2022/09/20 11:00:59;;;;;;;4.50;0.98;;;18.00;51.10;;;;;;5128550;27;20059;-72
2022/09/20 11:03:33;;;;;;;3.67;0.60;;;18.00;51.00;;;;;;5128549;27;20111;-71
2022/09/20 11:06:02;;;;;;;4.15;0.90;;;18.00;51.30;;;;;;5104091;27;20605;-71
2022/09/20 11:08:37;;;;;;;5.53;1.23;;;18.00;51.10;;;;;;5129498;27;20042;-73
2022/09/20 11:11:12;;;;;;;3.38;0.70;;;18.10;50.80;;;;;;5126327;27;20366;-71
2022/09/20 11:14:01;;;;;;;2.65;0.70;;;18.10;50.60;;;;;;5129496;27;20038;-71
2022/09/20 11:16:40;;;;;;;3.83;0.80;;;18.20;51.10;;;;;;5111458;27;20045;-71
2022/09/20 11:19:25;;;;;;;1.77;0.40;;;18.30;51.00;;;;;;5128204;27;20040;-70
2022/09/20 11:22:08;;;;;;;3.00;0.70;;;18.30;51.30;;;;;;5127725;27;20448;-71
2022/09/20 11:24:46;;;;;;;3.15;0.70;;;18.40;50.70;;;;;;5128990;27;20521;-71
2022/09/20 11:27:41;;;;;;;5.22;0.60;;;18.40;49.80;;;;;;5126905;27;20087;-71
2022/09/20 11:30:21;;;;;;;3.95;0.77;;;18.50;49.60;;;;;;5119375;27;20043;-71
2022/09/20 11:33:02;;;;;;;4.60;1.00;;;18.40;50.10;;;;;;5127656;27;20100;-71
2022/09/20 11:35:53;;;;;;;2.05;0.60;;;18.40;51.80;;;;;;5126683;27;20035;-71
2022/09/20 11:38:30;;;;;;;3.63;0.80;;;18.30;52.50;;;;;;5121449;27;20138;-71
2022/09/20 11:41:13;;;;;;;5.28;0.80;;;18.30;53.30;;;;;;5124737;27;20031;-71
2022/09/20 11:43:44;;;;;;;2.53;0.80;;;18.20;53.80;;;;;;5110670;28;20050;-71
2022/09/20 11:46:24;;;;;;;3.70;0.90;;;18.20;54.20;;;;;;5095917;28;20100;-71
2022/09/20 11:48:59;;;;;;;6.47;1.33;;;18.10;54.80;;;;;;5112488;28;20032;-71
2022/09/20 11:51:38;;;;;;;3.08;0.90;;;18.10;55.20;;;;;;5112602;28;20043;-71
2022/09/20 11:54:30;;;;;;;4.53;0.82;;;18.00;55.60;;;;;;5094433;28;20049;-71
2022/09/20 11:56:56;;;;;;;3.22;0.70;;;18.00;56.00;;;;;;5111955;28;20089;-71
2022/09/20 11:59:35;;;;;;;2.55;0.88;;;17.90;56.10;;;;;;5095597;28;20043;-71
2022/09/20 12:02:11;;;;;;;3.90;0.75;;;17.90;56.70;;;;;;5094794;28;20040;-71
2022/09/20 12:04:42;;;;;;;4.78;1.10;;;17.90;57.00;;;;;;5094676;28;20046;-71
2022/09/20 12:07:18;;;;;;;2.70;0.60;;;17.80;57.30;;;;;;5111868;28;20035;-71
2022/09/20 12:09:51;;;;;;;5.00;0.70;;;17.80;57.80;;;;;;5112331;28;20530;-71
2022/09/20 12:12:40;;;;;;;4.63;0.80;;;17.80;58.30;;;;;;5112353;28;20082;-71
2022/09/20 12:15:39;;;;;;;5.63;1.08;;;17.90;58.70;;;;;;5112206;28;20126;-71
2022/09/20 12:18:33;;;;;;;4.43;1.05;;;17.90;58.80;;;;;;5124533;27;20101;-71
2022/09/20 12:21:14;;;;;;;3.40;0.73;;;17.90;58.90;;;;;;5091780;28;20048;-71
2022/09/20 12:23:46;;;;;;;5.07;0.80;;;17.90;58.40;;;;;;5122565;27;20414;-71
2022/09/20 12:26:14;;;;;;;4.10;0.80;;;17.90;57.50;;;;;;5111703;28;20084;-71
2022/09/20 12:28:42;;;;;;;4.53;1.02;;;17.90;57.20;;;;;;5111739;28;20684;-71
2022/09/20 12:31:17;;;;;;;5.50;0.77;;;18.00;57.10;;;;;;5095261;28;20046;-71
2022/09/20 12:33:56;;;;;;;3.55;0.90;;;18.00;56.50;;;;;;5111787;28;20038;-71
2022/09/20 12:36:23;;;;;;;6.18;0.98;;;18.00;56.10;;;;;;5126783;28;20071;-70
2022/09/20 12:39:02;;;;;;;3.80;1.15;;;18.00;55.70;;;;;;5111657;28;20044;-70
2022/09/20 12:41:42;;;;;;;4.32;1.02;;;18.00;54.80;;;;;;5112061;28;20108;-70
2022/09/20 12:44:58;;;;;;;5.45;1.20;;;17.90;54.90;;;;;;5111761;28;20036;-70
2022/09/20 12:47:32;;;;;;;5.20;0.98;;;17.90;55.10;;;;;;5014693;28;20053;-70
2022/09/20 12:53:02;;;;;;;6.43;1.10;;;17.90;54.70;;;;;;5105627;28;20046;-71
2022/09/20 12:55:42;;;;;;;3.88;0.85;;;17.90;54.10;;;;;;5113473;28;20039;-71
2022/09/20 12:58:14;;;;;;;3.72;0.80;;;17.90;54.40;;;;;;5115916;28;20036;-71
2022/09/20 13:00:49;;;;;;;2.22;0.70;;;17.90;53.50;;;;;;5116011;28;20066;-71
2022/09/20 13:03:42;;;;;;;2.67;0.95;;;17.90;52.80;;;;;;5098645;28;20100;-71
2022/09/20 13:06:11;;;;;;;3.33;0.75;;;17.90;52.80;;;;;;5115957;28;20040;-72
2022/09/20 13:09:00;;;;;;;3.22;0.73;;;17.80;53.10;;;;;;5115476;28;20479;-71
2022/09/20 13:11:40;;;;;;;4.85;1.08;;;17.90;53.60;;;;;;5098385;28;20035;-71
2022/09/20 13:14:13;;;;;;;4.82;0.90;;;17.80;53.60;;;;;;5115106;28;20039;-71
2022/09/20 13:16:48;;;;;;;3.60;0.75;;;17.70;54.10;;;;;;5115873;28;20485;-71
2022/09/20 13:19:19;;;;;;;5.43;0.80;;;17.70;54.50;;;;;;5115742;28;20110;-71
2022/09/20 13:21:53;;;;;;;4.47;0.90;;;17.70;54.20;;;;;;5098336;28;20060;-71
2022/09/20 13:24:19;;;;;;;;;;;17.60;53.60;;;;;;5124037;27;20051;-71
2022/09/20 13:26:48;;;;;;;4.88;0.98;;;17.60;53.90;;;;;;5114901;28;19915;-71
2022/09/20 13:29:32;;;;;;;2.03;0.90;;;17.60;53.00;;;;;;5116194;28;20050;-71
2022/09/20 13:32:21;;;;;;;4.88;0.88;;;17.60;52.40;;;;;;5098321;28;20127;-71
2022/09/20 13:35:23;;;;;;;6.47;1.75;;;17.60;52.70;;;;;;5114776;28;20060;-71
2022/09/20 13:37:56;;;;;;;5.00;0.80;;;17.60;53.10;;;;;;5111903;28;20047;-71
2022/09/20 13:40:23;;;;;;;4.45;0.95;;;17.60;53.50;;;;;;5114508;28;20035;-71
2022/09/20 13:42:51;;;;;;;3.38;0.70;;;17.60;53.50;;;;;;5115489;27;20031;-70
2022/09/20 13:45:20;;;;;;;4.50;0.98;;;17.70;53.40;;;;;;5114503;28;20043;-71
2022/09/20 13:47:51;;;;;;;2.75;0.60;;;17.70;53.00;;;;;;5128269;27;20043;-71
2022/09/20 13:50:33;;;;;;;4.03;0.60;;;17.80;52.70;;;;;;5110799;28;20387;-70
2022/09/20 13:53:01;;;;;;;4.53;1.13;;;17.80;52.70;;;;;;5114993;28;20579;-70
2022/09/20 13:55:33;;;;;;;4.40;0.68;;;17.90;52.70;;;;;;5097665;28;20050;-70
2022/09/20 13:58:06;;;;;;;4.40;0.90;;;17.90;51.70;;;;;;5114494;28;20036;-70
2022/09/20 14:00:33;;;;;;;5.70;1.00;;;17.90;51.10;;;;;;5096581;28;20043;-71